Archival Weather

Chicago O'Hare International

Chicago, Illinois (KORD)

Report from: Thursday, March 21, 2024 7:51 AM CDT
Current time: Tuesday, May 21, 2024 10:49 AM CDT

Current weather – Weather history – Daily summaries
Weather forecast

Temperature-1.1°C (30.0°F)
Wind chill-3.1°C (26.5°F)
Dew point-6.7°C (19.9°F)
Winds 3 kts (1.5 m/s, 3.5 mph) Northwest (320°)
Visibility10 mi. (16.1 km)
Clouds Few clouds 4,500 ft. (1,372 m)
Scattered clouds 10,000 ft. (3,048 m)
Ceiling: Broken clouds 14,000 ft. (4,267 m)
Broken clouds 23,000 ft. (7,010 m)
Altimeter30.29 in.Hg (1026 mB)
Relative humidity66 %
Density altitude-2,360 ft. (-719 m)
Sea-level pressure102.6 kPa (1026 mB, 30.31 in.Hg)
Remarks Automated weather observing station with precipitation discriminator
Flight conditions Visual Meteorological Conditions
Raw dataKORD 211251Z 32003KT 10SM FEW045 SCT100 BKN140 BKN230 M01/M07 A3029 RMK AO2 SLP264 T10111067
An error has occurred. This application may no longer respond until reloaded. Reload 🗙